Terminal Aerodrome Forecast
Issued by NWS

Home | Current Version | Previous Version | Text Only | Print | Product List | Glossary On
Versions: 1 2 3 4 5 6 7 8 9 10 11 12 13 14 15 16
788
FTUS46 KPDT 260520
TAFDLS
TAF
KDLS 260520Z 2606/2706 31008KT P6SM FEW080 BKN180
     FM261200 08004KT P6SM SCT060 OVC150
     FM261700 VRB05KT P6SM -SHRA SCT025 OVC040
     FM270400 30005KT P6SM VCSH SCT030 OVC050=

USA.gov is the U.S. government's official web portal to all federal, state and local government web resources and services.